createdAt,value
2023-01-29T00:01:38.790Z,21.27
2023-01-29T00:04:12.211Z,22.43
2023-01-29T00:06:45.991Z,23.27
2023-01-29T00:09:20.704Z,22.70
2023-01-29T00:11:53.962Z,20.63
2023-01-29T00:14:29.179Z,20.33
2023-01-29T00:17:03.171Z,21.33
2023-01-29T00:19:37.754Z,21.87
2023-01-29T00:22:11.721Z,22.17
2023-01-29T00:24:45.443Z,21.57
2023-01-29T00:27:19.551Z,21.10
2023-01-29T00:30:08.351Z,21.23
2023-01-29T00:32:42.555Z,20.20
2023-01-29T00:35:16.650Z,20.63
2023-01-29T00:37:50.599Z,22.13
2023-01-29T00:40:27.332Z,22.97
2023-01-29T00:43:18.358Z,22.07
2023-01-29T00:45:53.669Z,20.63
2023-01-29T00:48:27.405Z,21.10
2023-01-29T00:51:00.959Z,20.73
2023-01-29T00:53:34.403Z,19.50
2023-01-29T00:56:08.768Z,20.23
2023-01-29T00:58:42.333Z,20.03
2023-01-29T01:01:17.837Z,21.07
2023-01-29T01:03:50.765Z,19.87
2023-01-29T01:06:24.099Z,20.53
2023-01-29T01:09:14.620Z,19.07
2023-01-29T01:11:48.451Z,19.47
2023-01-29T01:14:22.760Z,18.53
2023-01-29T01:16:58.261Z,20.37
2023-01-29T01:19:32.009Z,19.43
2023-01-29T01:22:07.045Z,20.10
2023-01-29T01:24:41.008Z,20.43
2023-01-29T01:27:15.325Z,21.17
2023-01-29T01:29:49.053Z,22.47
2023-01-29T01:32:23.875Z,22.77
2023-01-29T01:34:57.706Z,22.43
2023-01-29T01:37:30.960Z,22.30
2023-01-29T01:40:05.824Z,22.40
2023-01-29T01:42:39.707Z,23.10
2023-01-29T01:45:26.085Z,22.57
2023-01-29T01:48:07.050Z,23.83
2023-01-29T01:50:47.060Z,23.53
2023-01-29T01:53:28.118Z,24.47
2023-01-29T01:56:11.196Z,23.90
2023-01-29T01:58:52.170Z,23.20
2023-01-29T02:01:29.157Z,23.70
2023-01-29T02:04:27.342Z,23.40
2023-01-29T02:07:21.536Z,22.03
2023-01-29T02:10:03.187Z,21.60
2023-01-29T02:12:39.523Z,23.40
2023-01-29T02:15:14.760Z,22.47
2023-01-29T02:17:48.430Z,22.80
2023-01-29T02:20:28.358Z,22.03
2023-01-29T02:23:47.004Z,22.27
2023-01-29T02:27:05.317Z,22.00
2023-01-29T02:29:56.359Z,19.97
2023-01-29T02:32:42.160Z,21.67
2023-01-29T02:35:29.156Z,22.60
2023-01-29T02:38:18.540Z,24.80
2023-01-29T02:40:57.805Z,23.53
2023-01-29T02:43:45.649Z,22.93
2023-01-29T02:46:32.216Z,24.33
2023-01-29T02:49:18.672Z,22.57
2023-01-29T02:52:03.639Z,25.33
2023-01-29T02:54:54.527Z,23.83
2023-01-29T02:57:36.275Z,25.20
2023-01-29T03:00:17.849Z,26.57
2023-01-29T03:03:01.373Z,25.90
2023-01-29T03:05:45.602Z,25.43
2023-01-29T03:08:37.318Z,23.93
2023-01-29T03:11:14.216Z,25.10
2023-01-29T03:13:54.200Z,26.43
2023-01-29T03:16:34.562Z,23.40
2023-01-29T03:19:17.664Z,24.77
2023-01-29T03:22:00.529Z,25.83
2023-01-29T03:25:00.482Z,27.23
2023-01-29T03:27:57.947Z,26.03
2023-01-29T03:30:54.326Z,24.47
2023-01-29T03:33:32.808Z,24.13
2023-01-29T03:36:16.037Z,25.00
2023-01-29T03:38:49.767Z,23.73
2023-01-29T03:41:30.822Z,26.53
2023-01-29T03:44:17.655Z,25.63
2023-01-29T03:47:00.034Z,24.30
2023-01-29T03:49:49.167Z,23.40
2023-01-29T03:52:35.282Z,25.87
2023-01-29T03:55:18.703Z,25.27
2023-01-29T03:58:00.462Z,24.50
2023-01-29T04:00:43.093Z,25.73
2023-01-29T04:03:23.642Z,23.40
2023-01-29T04:06:10.623Z,24.50
2023-01-29T04:08:53.829Z,24.40
2023-01-29T04:11:30.801Z,26.63
2023-01-29T04:14:05.108Z,28.00
2023-01-29T04:16:43.450Z,31.43
2023-01-29T04:19:18.252Z,29.13
2023-01-29T04:21:59.652Z,25.70
2023-01-29T04:24:36.084Z,23.23
2023-01-29T04:27:28.689Z,25.50
2023-01-29T04:30:18.863Z,24.47
2023-01-29T04:33:07.887Z,24.23
2023-01-29T04:36:06.148Z,22.27
2023-01-29T04:39:00.546Z,22.00
2023-01-29T04:41:44.581Z,23.50
2023-01-29T04:44:24.764Z,22.43
2023-01-29T04:47:10.473Z,22.73
2023-01-29T04:49:50.733Z,22.27
2023-01-29T04:52:34.036Z,22.87
2023-01-29T04:55:16.583Z,21.53
2023-01-29T04:58:05.465Z,21.13
2023-01-29T05:00:43.612Z,21.13
2023-01-29T05:03:18.821Z,21.73
2023-01-29T05:05:55.433Z,21.40
2023-01-29T05:08:33.822Z,19.70
2023-01-29T05:11:08.010Z,21.07
2023-01-29T05:13:45.028Z,20.93
2023-01-29T05:16:25.244Z,20.97
2023-01-29T05:18:58.927Z,20.23
2023-01-29T05:21:34.309Z,21.27
2023-01-29T05:24:11.579Z,20.87
2023-01-29T05:27:06.171Z,21.00
2023-01-29T05:29:46.639Z,19.83
2023-01-29T05:32:20.769Z,19.43
2023-01-29T05:34:54.861Z,22.43
2023-01-29T05:37:28.383Z,20.80
2023-01-29T05:40:02.194Z,19.83
2023-01-29T05:42:36.084Z,21.60
2023-01-29T05:45:12.684Z,20.80
2023-01-29T05:47:47.198Z,21.23
2023-01-29T05:50:20.798Z,19.47
2023-01-29T05:52:58.695Z,20.23
2023-01-29T05:55:32.345Z,19.60
2023-01-29T05:58:06.566Z,19.20
2023-01-29T06:00:42.858Z,19.93
2023-01-29T06:03:17.053Z,18.80
2023-01-29T06:05:50.821Z,19.27
2023-01-29T06:08:24.121Z,20.60
2023-01-29T06:10:57.880Z,19.23
2023-01-29T06:13:31.520Z,19.23
2023-01-29T06:16:09.730Z,19.00
2023-01-29T06:18:45.124Z,19.43
2023-01-29T06:21:20.114Z,19.10
2023-01-29T06:23:54.850Z,18.70
2023-01-29T06:26:29.022Z,18.33
2023-01-29T06:29:02.833Z,19.07
2023-01-29T06:31:39.455Z,17.33
2023-01-29T06:34:13.422Z,20.13
2023-01-29T06:36:46.670Z,18.93
2023-01-29T06:39:19.939Z,19.23
2023-01-29T06:41:53.625Z,20.80
2023-01-29T06:44:26.893Z,20.33
2023-01-29T06:47:02.761Z,19.90
2023-01-29T06:49:37.409Z,19.73
2023-01-29T06:52:11.289Z,18.83
2023-01-29T06:54:44.614Z,18.53
2023-01-29T06:57:18.260Z,19.77
2023-01-29T06:59:51.483Z,21.93
2023-01-29T07:02:26.325Z,20.03
2023-01-29T07:05:03.166Z,19.80
2023-01-29T07:07:37.947Z,20.37
2023-01-29T07:10:12.541Z,20.23
2023-01-29T07:12:47.583Z,20.17
2023-01-29T07:15:21.434Z,19.43
2023-01-29T07:18:02.718Z,19.73
2023-01-29T07:20:36.691Z,19.53
2023-01-29T07:23:14.562Z,19.30
2023-01-29T07:25:50.176Z,19.93
2023-01-29T07:28:23.465Z,20.30
2023-01-29T07:30:59.095Z,20.47
2023-01-29T07:33:34.638Z,19.40
2023-01-29T07:36:10.628Z,20.40
2023-01-29T07:38:46.609Z,19.30
2023-01-29T07:41:20.516Z,18.20
2023-01-29T07:43:54.036Z,19.10
2023-01-29T07:46:27.776Z,19.53
2023-01-29T07:49:02.892Z,21.20
2023-01-29T07:51:37.315Z,21.17
2023-01-29T07:54:11.171Z,21.17
2023-01-29T07:56:45.055Z,21.03
2023-01-29T07:59:18.489Z,21.37
2023-01-29T08:01:52.155Z,20.97
2023-01-29T08:04:27.678Z,19.13
2023-01-29T08:07:01.701Z,20.50
2023-01-29T08:09:35.246Z,21.00
2023-01-29T08:12:09.248Z,20.77
2023-01-29T08:14:42.664Z,21.10
2023-01-29T08:17:16.500Z,20.93
2023-01-29T08:19:53.495Z,21.10
2023-01-29T08:22:27.430Z,22.30
2023-01-29T08:25:08.195Z,22.00
2023-01-29T08:27:42.972Z,21.73
2023-01-29T08:30:18.546Z,21.73
2023-01-29T08:32:52.568Z,20.20
2023-01-29T08:35:28.112Z,21.60
2023-01-29T08:38:04.211Z,19.87
2023-01-29T08:40:37.878Z,21.30
2023-01-29T08:43:14.015Z,21.53
2023-01-29T08:45:49.029Z,21.57
2023-01-29T08:48:24.351Z,21.60
2023-01-29T08:51:00.998Z,22.73
2023-01-29T08:53:34.804Z,22.83
2023-01-29T08:56:09.515Z,22.23
2023-01-29T08:58:43.064Z,22.17
2023-01-29T09:01:16.786Z,23.00
2023-01-29T09:03:50.985Z,23.20
2023-01-29T09:06:26.312Z,23.90
2023-01-29T09:08:59.691Z,22.43
2023-01-29T09:11:33.513Z,21.87
2023-01-29T09:14:07.389Z,23.50
2023-01-29T09:16:41.094Z,22.20
2023-01-29T09:19:14.531Z,22.47
2023-01-29T09:21:49.600Z,22.90
2023-01-29T09:24:24.580Z,23.00
2023-01-29T09:26:58.255Z,23.23
2023-01-29T09:29:33.040Z,21.80
2023-01-29T09:32:08.654Z,21.83
2023-01-29T09:34:42.184Z,22.03
2023-01-29T09:37:17.615Z,23.00
2023-01-29T09:39:51.475Z,21.03
2023-01-29T09:42:30.242Z,21.80
2023-01-29T09:45:13.629Z,21.40
2023-01-29T09:47:48.821Z,21.90
2023-01-29T09:50:39.927Z,22.87
2023-01-29T09:53:23.329Z,22.00
2023-01-29T09:56:05.737Z,20.73
2023-01-29T09:58:41.867Z,21.27
2023-01-29T10:01:29.023Z,20.67
2023-01-29T10:04:41.889Z,20.50
2023-01-29T10:07:46.483Z,22.60
2023-01-29T10:10:50.764Z,20.30
2023-01-29T10:13:38.508Z,20.07
2023-01-29T10:16:33.296Z,21.07
2023-01-29T10:19:47.384Z,20.40
2023-01-29T10:22:52.037Z,22.23
2023-01-29T10:25:26.055Z,19.70
2023-01-29T10:28:02.790Z,21.63
2023-01-29T10:30:44.336Z,21.63
2023-01-29T10:33:33.024Z,21.57
2023-01-29T10:36:18.196Z,21.60
2023-01-29T10:38:53.067Z,20.77
2023-01-29T10:41:50.597Z,22.63
2023-01-29T10:44:45.938Z,22.03
2023-01-29T10:47:57.371Z,20.80
2023-01-29T10:50:50.578Z,20.10
2023-01-29T10:53:42.196Z,20.43
2023-01-29T10:56:43.020Z,20.93
2023-01-29T10:59:42.701Z,22.60
2023-01-29T11:02:19.694Z,20.13
2023-01-29T11:04:53.538Z,20.50
2023-01-29T11:07:27.812Z,20.83
2023-01-29T11:10:12.742Z,21.43
2023-01-29T11:12:53.438Z,19.53
2023-01-29T11:15:34.188Z,22.70
2023-01-29T11:18:14.381Z,21.40
2023-01-29T11:21:01.234Z,21.13
2023-01-29T11:23:35.975Z,19.33
2023-01-29T11:26:15.262Z,21.17
2023-01-29T11:28:51.992Z,20.17
2023-01-29T11:31:31.024Z,20.13
2023-01-29T11:34:15.410Z,19.63
2023-01-29T11:36:58.805Z,20.50
2023-01-29T11:39:34.230Z,19.40
2023-01-29T11:42:12.968Z,21.30
2023-01-29T11:44:49.095Z,20.00
2023-01-29T11:47:28.850Z,20.83
2023-01-29T11:50:04.779Z,19.70
2023-01-29T11:52:42.531Z,18.40
2023-01-29T11:55:22.125Z,18.90
2023-01-29T11:58:04.306Z,21.57
2023-01-29T12:00:43.160Z,19.63
2023-01-29T12:03:25.207Z,19.47
2023-01-29T12:06:04.184Z,19.03
2023-01-29T12:08:40.878Z,21.53
2023-01-29T12:11:25.230Z,21.20
2023-01-29T12:14:01.832Z,20.07
2023-01-29T12:16:47.487Z,20.20
2023-01-29T12:19:36.219Z,20.43
2023-01-29T12:22:19.749Z,20.27
2023-01-29T12:25:00.815Z,20.70
2023-01-29T12:27:45.140Z,19.27
2023-01-29T12:30:27.588Z,18.50
2023-01-29T12:33:13.088Z,20.23
2023-01-29T12:36:00.042Z,18.00
2023-01-29T12:38:33.658Z,18.43
2023-01-29T12:41:21.722Z,17.37
2023-01-29T12:44:02.835Z,20.23
2023-01-29T12:46:45.096Z,17.73
2023-01-29T12:49:25.469Z,19.53
2023-01-29T12:52:10.842Z,17.83
2023-01-29T12:54:53.734Z,19.07
2023-01-29T12:57:40.463Z,20.00
2023-01-29T13:00:20.368Z,21.10
2023-01-29T13:03:02.098Z,18.70
2023-01-29T13:05:42.667Z,19.37
2023-01-29T13:08:23.529Z,17.97
2023-01-29T13:11:05.963Z,16.00
2023-01-29T13:13:54.141Z,17.70
2023-01-29T13:16:34.753Z,17.60
2023-01-29T13:19:27.174Z,17.47
2023-01-29T13:22:12.532Z,16.90
2023-01-29T13:25:02.336Z,16.17
2023-01-29T13:27:39.111Z,16.37
2023-01-29T13:30:28.927Z,17.00
2023-01-29T13:33:10.780Z,16.47
2023-01-29T13:35:47.420Z,17.00
2023-01-29T13:38:26.673Z,16.57
2023-01-29T13:41:06.059Z,16.50
2023-01-29T13:43:43.511Z,17.37
2023-01-29T13:46:21.665Z,18.90
2023-01-29T13:48:58.276Z,17.23
2023-01-29T13:51:38.216Z,17.77
2023-01-29T13:54:24.536Z,18.50
2023-01-29T13:57:50.025Z,18.67
2023-01-29T14:01:00.996Z,16.50
2023-01-29T14:04:10.133Z,16.97
2023-01-29T14:06:50.665Z,18.27
2023-01-29T14:10:17.994Z,18.53
2023-01-29T14:13:18.157Z,19.60
2023-01-29T14:16:35.074Z,19.67
2023-01-29T14:19:08.740Z,19.70
2023-01-29T14:21:43.020Z,17.73
2023-01-29T14:24:22.862Z,19.53
2023-01-29T14:26:57.590Z,17.37
2023-01-29T14:29:42.689Z,19.33
2023-01-29T14:32:22.387Z,17.77
2023-01-29T14:35:02.449Z,18.90
2023-01-29T14:37:41.355Z,17.33
2023-01-29T14:40:22.875Z,16.50
2023-01-29T14:43:02.612Z,16.33
2023-01-29T14:45:41.904Z,17.47
2023-01-29T14:48:49.812Z,17.97
2023-01-29T14:51:28.300Z,15.43
2023-01-29T14:54:07.729Z,17.10
2023-01-29T14:56:52.704Z,15.30
2023-01-29T14:59:37.833Z,15.73
2023-01-29T15:02:22.857Z,15.00
2023-01-29T15:05:01.154Z,16.10
2023-01-29T15:07:43.040Z,15.83
2023-01-29T15:10:24.059Z,15.90
2023-01-29T15:13:05.962Z,15.63
2023-01-29T15:15:47.956Z,16.33
2023-01-29T15:18:34.827Z,16.13
2023-01-29T15:21:14.981Z,16.13
2023-01-29T15:23:49.879Z,14.67
2023-01-29T15:26:27.254Z,16.47
2023-01-29T15:29:04.706Z,16.50
2023-01-29T15:31:42.340Z,15.87
2023-01-29T15:34:17.391Z,15.33
2023-01-29T15:36:51.651Z,15.50
2023-01-29T15:39:27.869Z,15.73
2023-01-29T15:42:21.758Z,17.27
2023-01-29T15:44:55.680Z,15.13
2023-01-29T15:47:34.016Z,15.53
2023-01-29T15:50:15.459Z,15.93
2023-01-29T15:52:53.179Z,15.30
2023-01-29T15:55:28.416Z,15.97
2023-01-29T15:58:02.423Z,16.00
2023-01-29T16:00:36.330Z,17.80
2023-01-29T16:03:16.701Z,16.83
2023-01-29T16:05:53.120Z,16.63
2023-01-29T16:08:29.023Z,16.37
2023-01-29T16:11:06.527Z,14.83
2023-01-29T16:13:44.596Z,16.20
2023-01-29T16:16:26.372Z,15.23
2023-01-29T16:19:15.416Z,14.73
2023-01-29T16:22:00.359Z,14.30
2023-01-29T16:24:39.148Z,15.40
2023-01-29T16:27:15.889Z,14.40
2023-01-29T16:29:49.777Z,14.57
2023-01-29T16:32:23.431Z,16.60
2023-01-29T16:35:00.943Z,15.87
2023-01-29T16:37:37.689Z,15.00
2023-01-29T16:40:18.549Z,15.10
2023-01-29T16:43:22.815Z,15.43
2023-01-29T16:46:22.855Z,14.73
2023-01-29T16:48:56.593Z,15.17
2023-01-29T16:51:32.871Z,14.77
2023-01-29T16:54:18.471Z,14.37
2023-01-29T16:56:56.056Z,15.03
2023-01-29T16:59:38.967Z,14.80
2023-01-29T17:02:26.554Z,15.23
2023-01-29T17:05:05.404Z,15.53
2023-01-29T17:07:40.276Z,13.70
2023-01-29T17:10:21.156Z,13.80
2023-01-29T17:13:00.138Z,14.13
2023-01-29T17:15:47.321Z,15.03
2023-01-29T17:18:26.577Z,14.10
2023-01-29T17:21:00.595Z,15.27
2023-01-29T17:23:34.525Z,14.90
2023-01-29T17:26:13.067Z,13.10
2023-01-29T17:28:47.551Z,14.67
2023-01-29T17:31:21.365Z,15.60
2023-01-29T17:33:54.827Z,14.93
2023-01-29T17:36:28.513Z,17.07
2023-01-29T17:39:02.052Z,15.70
2023-01-29T17:41:38.433Z,15.43
2023-01-29T17:44:12.074Z,15.37
2023-01-29T17:46:47.518Z,14.30
2023-01-29T17:49:27.536Z,14.63
2023-01-29T17:52:01.360Z,14.63
2023-01-29T17:54:35.079Z,16.33
2023-01-29T17:57:15.151Z,14.67
2023-01-29T17:59:49.180Z,15.33
2023-01-29T18:02:29.748Z,16.33
2023-01-29T18:05:03.428Z,17.00
2023-01-29T18:07:38.791Z,17.00
2023-01-29T18:10:17.931Z,15.90
2023-01-29T18:12:52.907Z,15.50
2023-01-29T18:15:27.042Z,14.90
2023-01-29T18:18:01.086Z,14.50
2023-01-29T18:20:38.550Z,16.13
2023-01-29T18:23:12.579Z,15.57
2023-01-29T18:25:46.512Z,15.13
2023-01-29T18:28:21.239Z,15.67
2023-01-29T18:30:55.592Z,16.10
2023-01-29T18:33:29.212Z,14.57
2023-01-29T18:36:04.875Z,13.60
2023-01-29T18:38:38.529Z,14.20
2023-01-29T18:41:12.698Z,14.30
2023-01-29T18:43:47.757Z,14.17
2023-01-29T18:46:24.369Z,13.13
2023-01-29T18:48:58.027Z,13.67
2023-01-29T18:51:31.834Z,14.13
2023-01-29T18:54:05.831Z,14.17
2023-01-29T18:57:13.857Z,14.43
2023-01-29T18:59:34.981Z,14.13
2023-01-29T19:02:08.970Z,11.97
2023-01-29T19:04:42.550Z,12.97
2023-01-29T19:07:17.147Z,13.00
2023-01-29T19:09:50.676Z,13.90
2023-01-29T19:12:25.198Z,14.57
2023-01-29T19:15:00.849Z,14.20
2023-01-29T19:17:34.909Z,13.43
2023-01-29T19:20:10.121Z,14.17
2023-01-29T19:22:44.067Z,13.77
2023-01-29T19:25:19.674Z,13.03
2023-01-29T19:27:53.775Z,12.77
2023-01-29T19:30:29.046Z,13.87
2023-01-29T19:33:02.976Z,13.20
2023-01-29T19:35:36.826Z,14.67
2023-01-29T19:38:10.474Z,14.83
2023-01-29T19:40:44.167Z,14.30
2023-01-29T19:43:18.726Z,13.87
2023-01-29T19:45:59.840Z,14.57
2023-01-29T19:48:33.562Z,13.90
2023-01-29T19:51:13.191Z,13.43
2023-01-29T19:53:46.874Z,14.03
2023-01-29T19:56:20.887Z,15.93
2023-01-29T19:58:57.341Z,13.03
2023-01-29T20:01:36.226Z,13.57
2023-01-29T20:04:10.074Z,14.07
2023-01-29T20:06:43.660Z,14.67
2023-01-29T20:09:17.973Z,15.93
2023-01-29T20:11:51.654Z,14.17
2023-01-29T20:14:25.282Z,13.97
2023-01-29T20:17:00.360Z,14.30
2023-01-29T20:19:35.241Z,15.47
2023-01-29T20:22:08.923Z,14.60
2023-01-29T20:24:43.688Z,14.97
2023-01-29T20:27:17.601Z,14.80
2023-01-29T20:29:52.849Z,14.57
2023-01-29T20:32:28.393Z,13.50
2023-01-29T20:35:02.103Z,14.07
2023-01-29T20:37:36.051Z,13.73
2023-01-29T20:40:11.908Z,13.43
2023-01-29T20:42:46.596Z,13.40
2023-01-29T20:45:21.364Z,15.60
2023-01-29T20:47:56.346Z,13.80
2023-01-29T20:50:30.908Z,14.20
2023-01-29T20:53:04.609Z,13.87
2023-01-29T20:55:39.481Z,13.23
2023-01-29T20:58:14.468Z,13.07
2023-01-29T21:00:49.688Z,13.00
2023-01-29T21:03:24.708Z,13.60
2023-01-29T21:05:59.191Z,13.10
2023-01-29T21:08:33.399Z,15.13
2023-01-29T21:11:09.519Z,15.33
2023-01-29T21:13:44.387Z,14.50
2023-01-29T21:16:18.549Z,14.77
2023-01-29T21:18:57.780Z,12.73
2023-01-29T21:21:31.031Z,13.73
2023-01-29T21:24:04.930Z,12.47
2023-01-29T21:26:39.701Z,13.47
2023-01-29T21:29:13.824Z,13.87
2023-01-29T21:31:47.999Z,14.17
2023-01-29T21:34:24.281Z,13.70
2023-01-29T21:36:58.033Z,12.87
2023-01-29T21:39:31.870Z,13.27
2023-01-29T21:42:23.786Z,15.00
2023-01-29T21:44:57.193Z,14.30
2023-01-29T21:47:31.099Z,14.83
2023-01-29T21:50:07.366Z,14.37
2023-01-29T21:52:40.807Z,13.73
2023-01-29T21:55:14.251Z,13.53
2023-01-29T21:57:49.200Z,14.93
2023-01-29T22:00:23.120Z,13.83
2023-01-29T22:02:57.869Z,13.50
2023-01-29T22:05:33.291Z,14.87
2023-01-29T22:08:06.857Z,14.53
2023-01-29T22:10:40.309Z,14.93
2023-01-29T22:13:13.833Z,14.10
2023-01-29T22:15:47.644Z,14.13
2023-01-29T22:18:21.296Z,13.90
2023-01-29T22:20:57.506Z,13.97
2023-01-29T22:23:33.486Z,13.63
2023-01-29T22:26:09.140Z,14.50
2023-01-29T22:28:42.920Z,14.50
2023-01-29T22:31:16.590Z,14.63
2023-01-29T22:33:50.444Z,15.00
2023-01-29T22:36:25.497Z,14.77
2023-01-29T22:38:59.636Z,14.37
2023-01-29T22:41:34.024Z,15.57
2023-01-29T22:44:07.590Z,15.40
2023-01-29T22:46:41.270Z,14.77
2023-01-29T22:49:16.072Z,15.97
2023-01-29T22:52:10.189Z,15.43
2023-01-29T22:54:45.155Z,14.63
2023-01-29T22:57:19.638Z,15.50
2023-01-29T22:59:54.037Z,15.30
2023-01-29T23:02:27.447Z,15.03
2023-01-29T23:05:00.915Z,16.33
2023-01-29T23:07:36.190Z,14.17
2023-01-29T23:10:12.985Z,15.53
2023-01-29T23:12:48.717Z,14.93
2023-01-29T23:15:22.417Z,15.93
2023-01-29T23:17:55.643Z,15.63
2023-01-29T23:20:29.517Z,15.67
2023-01-29T23:23:04.650Z,15.10
2023-01-29T23:25:55.700Z,15.53
2023-01-29T23:28:28.964Z,15.30
2023-01-29T23:31:02.678Z,15.13
2023-01-29T23:33:36.496Z,14.80
2023-01-29T23:36:11.457Z,15.00
2023-01-29T23:38:46.309Z,15.17
2023-01-29T23:41:19.785Z,15.60
2023-01-29T23:43:54.125Z,15.13
2023-01-29T23:46:27.788Z,16.10
2023-01-29T23:49:01.806Z,15.90
2023-01-29T23:51:35.192Z,14.93
2023-01-29T23:54:10.236Z,14.97
2023-01-29T23:56:44.553Z,15.83
2023-01-29T23:59:18.766Z,15.57
